createdAt,value
2019-05-17T00:01:57.710Z,8.70
2019-05-17T00:04:27.282Z,8.60
2019-05-17T00:06:57.040Z,8.70
2019-05-17T00:09:26.862Z,8.60
2019-05-17T00:11:56.937Z,8.50
2019-05-17T00:14:27.125Z,8.30
2019-05-17T00:16:57.289Z,8.40
2019-05-17T00:19:26.533Z,8.40
2019-05-17T00:21:56.690Z,8.40
2019-05-17T00:24:26.521Z,8.40
2019-05-17T00:26:58.408Z,8.40
2019-05-17T00:29:26.748Z,8.40
2019-05-17T00:31:56.871Z,8.40
2019-05-17T00:34:27.044Z,8.40
2019-05-17T00:36:57.372Z,8.40
2019-05-17T00:39:27.245Z,8.20
2019-05-17T00:41:57.286Z,8.40
2019-05-17T00:44:27.220Z,8.20
2019-05-17T00:46:58.809Z,8.40
2019-05-17T00:49:27.409Z,8.40
2019-05-17T00:51:56.863Z,8.30
2019-05-17T00:54:26.915Z,8.50
2019-05-17T00:56:56.772Z,8.50
2019-05-17T00:59:26.349Z,8.60
2019-05-17T01:01:56.235Z,8.50
2019-05-17T01:04:27.611Z,8.20
2019-05-17T01:06:56.738Z,8.30
2019-05-17T01:09:27.290Z,8.30
2019-05-17T01:11:56.803Z,8.00
2019-05-17T01:14:26.602Z,8.10
2019-05-17T01:16:56.489Z,8.20
2019-05-17T01:19:27.011Z,8.30
2019-05-17T01:21:56.905Z,8.20
2019-05-17T01:24:27.432Z,8.20
2019-05-17T01:26:57.418Z,8.10
2019-05-17T01:29:26.885Z,8.10
2019-05-17T01:31:57.133Z,8.10
2019-05-17T01:34:27.228Z,8.10
2019-05-17T01:36:56.946Z,8.10
2019-05-17T01:39:26.894Z,8.20
2019-05-17T01:41:57.365Z,8.10
2019-05-17T01:44:27.275Z,8.10
2019-05-17T01:46:56.818Z,8.00
2019-05-17T01:49:27.133Z,8.10
2019-05-17T01:51:56.831Z,8.10
2019-05-17T01:54:26.873Z,8.20
2019-05-17T01:56:56.645Z,8.40
2019-05-17T01:59:26.781Z,8.30
2019-05-17T02:01:57.833Z,8.30
2019-05-17T02:04:27.192Z,8.30
2019-05-17T02:06:57.491Z,8.40
2019-05-17T02:09:37.311Z,8.30
2019-05-17T02:11:57.381Z,8.30
2019-05-17T02:14:26.790Z,8.40
2019-05-17T02:16:57.316Z,8.20
2019-05-17T02:19:27.103Z,8.20
2019-05-17T02:21:57.025Z,8.30
2019-05-17T02:24:27.513Z,8.30
2019-05-17T02:26:57.086Z,8.20
2019-05-17T02:29:26.545Z,8.20
2019-05-17T02:31:56.197Z,8.10
2019-05-17T02:34:25.531Z,8.20
2019-05-17T02:36:54.879Z,8.10
2019-05-17T02:39:23.954Z,8.20
2019-05-17T02:41:53.443Z,8.10
2019-05-17T02:44:23.653Z,8.20
2019-05-17T02:46:53.739Z,8.30
2019-05-17T02:49:23.722Z,8.30
2019-05-17T02:51:53.500Z,8.40
2019-05-17T02:54:23.582Z,8.50
2019-05-17T02:56:53.825Z,8.50
2019-05-17T02:59:23.482Z,8.50
2019-05-17T03:01:52.938Z,8.50
2019-05-17T03:04:23.653Z,8.40
2019-05-17T03:06:53.405Z,8.40
2019-05-17T03:09:23.093Z,8.40
2019-05-17T03:11:56.630Z,8.40
2019-05-17T03:14:23.143Z,8.40
2019-05-17T03:16:53.751Z,8.40
2019-05-17T03:19:23.675Z,8.30
2019-05-17T03:21:53.506Z,8.50
2019-05-17T03:24:22.907Z,8.50
2019-05-17T03:26:52.852Z,8.50
2019-05-17T03:29:22.899Z,8.60
2019-05-17T03:31:59.682Z,8.50
2019-05-17T03:34:26.673Z,8.50
2019-05-17T03:36:56.566Z,8.50
2019-05-17T03:39:25.759Z,8.60
2019-05-17T03:41:54.860Z,8.60
2019-05-17T03:44:23.964Z,8.70
2019-05-17T03:46:53.426Z,8.70
2019-05-17T03:49:22.604Z,8.70
2019-05-17T03:51:53.250Z,8.60
2019-05-17T03:54:23.144Z,8.60
2019-05-17T03:56:53.230Z,8.60
2019-05-17T03:59:24.250Z,8.60
2019-05-17T04:01:53.485Z,8.80
2019-05-17T04:04:23.092Z,8.80
2019-05-17T04:06:52.775Z,8.80
2019-05-17T04:09:22.535Z,8.90
2019-05-17T04:11:53.666Z,8.90
2019-05-17T04:14:22.831Z,9.00
2019-05-17T04:16:53.648Z,9.00
2019-05-17T04:19:23.266Z,8.80
2019-05-17T04:21:53.632Z,8.90
2019-05-17T04:24:23.251Z,8.90
2019-05-17T04:26:52.725Z,9.00
2019-05-17T04:29:22.776Z,9.00
2019-05-17T04:31:54.608Z,8.90
2019-05-17T04:34:23.225Z,9.00
2019-05-17T04:36:52.882Z,9.00
2019-05-17T04:39:22.733Z,9.10
2019-05-17T04:41:54.817Z,9.10
2019-05-17T04:44:23.276Z,9.10
2019-05-17T04:46:53.563Z,9.20
2019-05-17T04:49:24.341Z,9.20
2019-05-17T04:51:53.718Z,9.20
2019-05-17T04:54:22.880Z,9.40
2019-05-17T04:56:53.159Z,9.40
2019-05-17T04:59:24.266Z,9.20
2019-05-17T05:01:54.003Z,9.20
2019-05-17T05:04:23.385Z,9.30
2019-05-17T05:06:52.767Z,9.50
2019-05-17T05:09:23.102Z,9.50
2019-05-17T05:12:01.018Z,9.50
2019-05-17T05:14:24.354Z,9.50
2019-05-17T05:16:53.463Z,9.60
2019-05-17T05:19:22.546Z,9.70
2019-05-17T05:21:52.194Z,9.60
2019-05-17T05:24:22.278Z,9.70
2019-05-17T05:26:51.905Z,9.80
2019-05-17T05:29:21.629Z,9.80
2019-05-17T05:31:51.825Z,9.90
2019-05-17T05:34:21.588Z,9.90
2019-05-17T05:36:52.474Z,9.90
2019-05-17T05:39:22.819Z,9.80
2019-05-17T05:42:05.049Z,9.90
2019-05-17T05:44:23.118Z,9.80
2019-05-17T05:46:52.497Z,9.90
2019-05-17T05:49:21.758Z,9.80
2019-05-17T05:51:52.298Z,9.90
2019-05-17T05:54:22.547Z,10.00
2019-05-17T05:56:52.465Z,10.10
2019-05-17T05:59:22.442Z,10.00
2019-05-17T06:01:52.584Z,10.00
2019-05-17T06:04:22.365Z,10.00
2019-05-17T06:06:52.198Z,10.10
2019-05-17T06:09:22.303Z,10.20
2019-05-17T06:11:52.022Z,10.30
2019-05-17T06:14:21.634Z,10.20
2019-05-17T06:16:52.061Z,10.20
2019-05-17T06:19:22.447Z,10.10
2019-05-17T06:21:52.068Z,10.10
2019-05-17T06:24:22.529Z,10.30
2019-05-17T06:26:52.520Z,10.10
2019-05-17T06:29:22.278Z,10.20
2019-05-17T06:31:51.923Z,10.30
2019-05-17T06:34:22.319Z,10.50
2019-05-17T06:36:52.817Z,10.50
2019-05-17T06:39:22.534Z,10.50
2019-05-17T06:41:52.277Z,10.50
2019-05-17T06:44:21.795Z,10.50
2019-05-17T06:46:51.939Z,10.60
2019-05-17T06:49:22.492Z,10.70
2019-05-17T06:51:52.404Z,10.80
2019-05-17T06:54:21.749Z,10.80
2019-05-17T06:56:52.546Z,11.10
2019-05-17T06:59:21.742Z,11.20
2019-05-17T07:01:51.131Z,11.30
2019-05-17T07:04:20.694Z,11.20
2019-05-17T07:06:52.031Z,11.50
2019-05-17T07:09:21.350Z,11.60
2019-05-17T07:11:56.086Z,11.50
2019-05-17T07:14:29.490Z,11.50
2019-05-17T07:16:59.578Z,11.70
2019-05-17T07:19:30.334Z,11.90
2019-05-17T07:22:00.049Z,11.90
2019-05-17T07:24:30.082Z,11.90
2019-05-17T07:26:59.567Z,11.90
2019-05-17T07:29:29.910Z,12.20
2019-05-17T07:32:00.419Z,12.10
2019-05-17T07:34:30.877Z,12.20
2019-05-17T07:37:02.989Z,12.10
2019-05-17T07:39:32.625Z,12.00
2019-05-17T07:42:01.769Z,11.80
2019-05-17T07:44:31.173Z,11.90
2019-05-17T07:47:00.249Z,12.20
2019-05-17T07:49:29.601Z,12.30
2019-05-17T07:52:00.599Z,12.30
2019-05-17T07:54:30.352Z,12.30
2019-05-17T07:57:00.228Z,12.40
2019-05-17T07:59:29.524Z,12.70
2019-05-17T08:01:59.738Z,12.70
2019-05-17T08:04:29.891Z,12.70
2019-05-17T08:06:59.788Z,12.90
2019-05-17T08:09:30.027Z,13.10
2019-05-17T08:11:59.707Z,13.20
2019-05-17T08:14:32.927Z,13.50
2019-05-17T08:17:00.187Z,13.30
2019-05-17T08:19:29.921Z,13.90
2019-05-17T08:21:59.663Z,14.20
2019-05-17T08:24:30.323Z,14.20
2019-05-17T08:27:00.006Z,14.60
2019-05-17T08:29:29.743Z,15.20
2019-05-17T08:32:00.332Z,15.30
2019-05-17T08:34:29.549Z,15.80
2019-05-17T08:37:00.946Z,16.10
2019-05-17T08:39:30.225Z,16.30
2019-05-17T08:42:01.308Z,16.40
2019-05-17T08:44:30.429Z,16.40
2019-05-17T08:46:59.576Z,16.00
2019-05-17T08:49:29.565Z,16.50
2019-05-17T08:51:59.489Z,16.60
2019-05-17T08:54:30.420Z,16.70
2019-05-17T08:57:00.655Z,16.70
2019-05-17T08:59:29.771Z,16.80
2019-05-17T09:02:00.139Z,16.60
2019-05-17T09:04:29.769Z,15.90
2019-05-17T09:07:00.082Z,16.30
2019-05-17T09:09:31.436Z,16.50
2019-05-17T09:12:00.910Z,16.10
2019-05-17T09:14:30.272Z,16.20
2019-05-17T09:17:00.373Z,16.30
2019-05-17T09:19:30.031Z,16.10
2019-05-17T09:21:59.817Z,16.10
2019-05-17T09:24:30.038Z,15.80
2019-05-17T09:26:59.883Z,16.00
2019-05-17T09:29:30.461Z,15.90
2019-05-17T09:32:00.121Z,16.20
2019-05-17T09:34:30.050Z,16.30
2019-05-17T09:37:00.288Z,16.50
2019-05-17T09:39:29.788Z,16.50
2019-05-17T09:42:01.218Z,16.50
2019-05-17T09:44:30.590Z,16.70
2019-05-17T09:46:59.776Z,16.60
2019-05-17T09:49:29.919Z,16.70
2019-05-17T09:52:00.147Z,16.60
2019-05-17T09:54:41.688Z,16.60
2019-05-17T09:57:00.553Z,16.60
2019-05-17T09:59:29.883Z,16.50
2019-05-17T10:02:00.119Z,16.50
2019-05-17T10:04:30.406Z,16.50
2019-05-17T10:06:59.898Z,16.60
2019-05-17T10:09:29.589Z,16.70
2019-05-17T10:12:00.036Z,16.30
2019-05-17T10:14:31.322Z,16.20
2019-05-17T10:17:00.630Z,15.90
2019-05-17T10:19:29.736Z,15.90
2019-05-17T10:21:59.770Z,16.10
2019-05-17T10:24:38.175Z,16.10
2019-05-17T10:27:00.231Z,16.40
2019-05-17T10:29:30.036Z,16.50
2019-05-17T10:31:59.859Z,16.50
2019-05-17T10:34:29.505Z,16.50
2019-05-17T10:36:58.835Z,16.30
2019-05-17T10:39:29.763Z,16.70
2019-05-17T10:41:58.977Z,16.90
2019-05-17T10:44:40.994Z,17.00
2019-05-17T10:46:59.418Z,16.90
2019-05-17T10:49:29.518Z,16.80
2019-05-17T10:51:59.968Z,16.80
2019-05-17T10:54:30.130Z,17.00
2019-05-17T10:56:59.798Z,17.00
2019-05-17T10:59:28.989Z,16.90
2019-05-17T11:01:59.667Z,16.60
2019-05-17T11:04:29.204Z,16.60
2019-05-17T11:06:59.596Z,16.50
2019-05-17T11:09:31.097Z,16.50
2019-05-17T11:12:00.080Z,16.70
2019-05-17T11:14:29.417Z,16.90
2019-05-17T11:16:58.538Z,16.80
2019-05-17T11:19:27.686Z,16.80
2019-05-17T11:21:57.239Z,16.80
2019-05-17T11:24:26.577Z,16.80
2019-05-17T11:26:55.753Z,16.80
2019-05-17T11:29:24.841Z,17.00
2019-05-17T11:31:54.209Z,17.40
2019-05-17T11:34:25.672Z,17.30
2019-05-17T11:36:54.645Z,17.50
2019-05-17T11:39:23.982Z,17.70
2019-05-17T11:41:53.186Z,17.50
2019-05-17T11:44:22.604Z,17.40
2019-05-17T11:46:51.708Z,17.20
2019-05-17T11:49:21.024Z,17.20
2019-05-17T11:51:50.165Z,17.50
2019-05-17T11:54:26.935Z,17.40
2019-05-17T11:56:56.263Z,17.50
2019-05-17T11:59:25.368Z,17.50
2019-05-17T12:01:55.234Z,17.30
2019-05-17T12:04:24.605Z,17.60
2019-05-17T12:06:53.716Z,17.40
2019-05-17T12:09:36.546Z,17.30
2019-05-17T12:11:53.901Z,17.60
2019-05-17T12:14:23.005Z,17.50
2019-05-17T12:16:52.154Z,17.80
2019-05-17T12:19:21.250Z,17.40
2019-05-17T12:21:50.636Z,17.30
2019-05-17T12:24:19.782Z,17.30
2019-05-17T12:26:49.109Z,17.40
2019-05-17T12:29:18.209Z,17.20
2019-05-17T12:31:47.597Z,17.40
2019-05-17T12:34:16.962Z,17.40
2019-05-17T12:36:46.299Z,17.30
2019-05-17T12:39:15.394Z,17.60
2019-05-17T12:41:44.572Z,17.50
2019-05-17T12:44:13.655Z,17.90
2019-05-17T12:46:42.749Z,18.10
2019-05-17T12:49:12.521Z,17.80
2019-05-17T12:51:41.675Z,17.90
2019-05-17T12:54:10.750Z,18.10
2019-05-17T12:56:39.828Z,18.00
2019-05-17T12:59:08.947Z,17.70
2019-05-17T13:01:38.284Z,17.60
2019-05-17T13:04:07.639Z,17.80
2019-05-17T13:06:36.754Z,17.80
2019-05-17T13:09:07.087Z,18.20
2019-05-17T13:11:36.426Z,18.40
2019-05-17T13:14:06.060Z,18.50
2019-05-17T13:16:35.282Z,18.70
2019-05-17T13:19:04.611Z,18.80
2019-05-17T13:21:33.699Z,18.50
2019-05-17T13:24:02.812Z,18.60
2019-05-17T13:26:32.187Z,18.40
2019-05-17T13:29:01.298Z,18.10
2019-05-17T13:31:30.640Z,17.80
2019-05-17T13:33:59.728Z,17.70
2019-05-17T13:36:29.076Z,17.60
2019-05-17T13:38:58.727Z,17.50
2019-05-17T13:41:27.905Z,17.50
2019-05-17T13:43:57.240Z,17.40
2019-05-17T13:46:33.123Z,17.30
2019-05-17T13:48:57.081Z,17.40
2019-05-17T13:51:26.197Z,17.60
2019-05-17T13:53:55.287Z,17.70
2019-05-17T13:56:24.645Z,17.90
2019-05-17T13:58:53.785Z,18.00
2019-05-17T14:01:22.910Z,18.00
2019-05-17T14:03:52.643Z,17.70
2019-05-17T14:06:22.306Z,17.80
2019-05-17T14:08:51.666Z,18.20
2019-05-17T14:11:21.076Z,18.10
2019-05-17T14:13:50.169Z,17.90
2019-05-17T14:16:19.539Z,17.90
2019-05-17T14:18:48.612Z,17.80
2019-05-17T14:21:17.758Z,17.70
2019-05-17T14:23:46.859Z,17.90
2019-05-17T14:26:16.249Z,18.00
2019-05-17T14:28:45.421Z,17.80
2019-05-17T14:31:14.818Z,17.80
2019-05-17T14:33:44.204Z,17.90
2019-05-17T14:36:13.371Z,17.80
2019-05-17T14:38:42.444Z,17.80
2019-05-17T14:41:11.605Z,17.80
2019-05-17T14:43:40.929Z,17.70
2019-05-17T14:46:10.389Z,17.80
2019-05-17T14:48:39.711Z,18.00
2019-05-17T14:51:08.938Z,17.90
2019-05-17T14:53:38.304Z,17.90
2019-05-17T14:56:07.427Z,17.90
2019-05-17T14:58:36.542Z,17.90
2019-05-17T15:01:05.635Z,18.00
2019-05-17T15:03:35.000Z,18.10
2019-05-17T15:06:04.347Z,18.30
2019-05-17T15:08:33.583Z,18.10
2019-05-17T15:11:02.962Z,17.80
2019-05-17T15:13:32.317Z,17.90
2019-05-17T15:16:01.395Z,17.90
2019-05-17T15:18:30.739Z,17.90
2019-05-17T15:20:59.843Z,18.00
2019-05-17T15:23:29.303Z,17.90
2019-05-17T15:25:58.410Z,17.80
2019-05-17T15:28:27.791Z,18.10
2019-05-17T15:30:57.149Z,18.30
2019-05-17T15:33:26.524Z,18.40
2019-05-17T15:35:55.872Z,18.30
2019-05-17T15:38:25.230Z,18.40
2019-05-17T15:40:54.290Z,18.40
2019-05-17T15:43:23.405Z,18.50
2019-05-17T15:45:52.485Z,18.40
2019-05-17T15:48:21.662Z,18.40
2019-05-17T15:50:50.774Z,18.20
2019-05-17T15:53:19.896Z,18.00
2019-05-17T15:55:49.302Z,17.90
2019-05-17T15:58:18.381Z,17.80
2019-05-17T16:00:47.752Z,17.90
2019-05-17T16:03:16.861Z,18.10
2019-05-17T16:05:45.967Z,18.00
2019-05-17T16:08:15.034Z,18.20
2019-05-17T16:10:44.467Z,18.30
2019-05-17T16:13:13.831Z,18.30
2019-05-17T16:15:42.946Z,18.30
2019-05-17T16:18:12.314Z,18.20
2019-05-17T16:20:41.394Z,18.20
2019-05-17T16:23:10.846Z,18.00
2019-05-17T16:25:39.923Z,18.00
2019-05-17T16:28:09.297Z,17.90
2019-05-17T16:30:38.659Z,17.90
2019-05-17T16:33:07.997Z,17.80
2019-05-17T16:35:37.356Z,17.80
2019-05-17T16:38:06.715Z,17.80
2019-05-17T16:40:36.142Z,17.80
2019-05-17T16:43:17.548Z,17.80
2019-05-17T16:45:36.451Z,17.70
2019-05-17T16:48:05.656Z,17.80
2019-05-17T16:50:34.993Z,17.70
2019-05-17T16:53:06.377Z,17.80
2019-05-17T16:55:35.654Z,17.80
2019-05-17T16:58:04.820Z,17.90
2019-05-17T17:00:36.746Z,17.80
2019-05-17T17:03:06.057Z,17.80
2019-05-17T17:05:35.526Z,17.80
2019-05-17T17:08:05.898Z,17.80
2019-05-17T17:10:35.299Z,17.60
2019-05-17T17:13:04.581Z,17.70
2019-05-17T17:15:34.003Z,17.70
2019-05-17T17:18:03.680Z,17.70
2019-05-17T17:20:33.083Z,17.40
2019-05-17T17:23:02.202Z,17.30
2019-05-17T17:25:31.540Z,17.20
2019-05-17T17:28:00.642Z,17.30
2019-05-17T17:30:29.997Z,17.20
2019-05-17T17:32:59.356Z,17.40
2019-05-17T17:35:28.458Z,17.60
2019-05-17T17:37:57.827Z,17.60
2019-05-17T17:40:27.050Z,17.30
2019-05-17T17:42:56.469Z,17.30
2019-05-17T17:45:26.417Z,17.20
2019-05-17T17:47:55.524Z,17.20
2019-05-17T17:50:24.902Z,17.30
2019-05-17T17:52:54.257Z,17.30
2019-05-17T17:55:23.381Z,17.30
2019-05-17T17:57:52.460Z,17.30
2019-05-17T18:00:22.114Z,17.30
2019-05-17T18:02:51.308Z,17.40
2019-05-17T18:05:21.398Z,17.30
2019-05-17T18:07:51.315Z,17.40
2019-05-17T18:10:28.682Z,17.20
2019-05-17T18:12:57.861Z,17.10
2019-05-17T18:15:35.311Z,17.10
2019-05-17T18:18:04.838Z,17.10
2019-05-17T18:20:33.919Z,17.00
2019-05-17T18:23:03.345Z,16.80
2019-05-17T18:25:32.704Z,16.60
2019-05-17T18:28:01.801Z,16.70
2019-05-17T18:30:30.887Z,16.70
2019-05-17T18:33:00.002Z,16.60
2019-05-17T18:35:29.338Z,16.50
2019-05-17T18:37:58.540Z,16.40
2019-05-17T18:40:27.997Z,16.40
2019-05-17T18:42:57.360Z,16.40
2019-05-17T18:45:26.454Z,16.40
2019-05-17T18:47:55.558Z,16.20
2019-05-17T18:50:24.746Z,16.10
2019-05-17T18:52:53.817Z,15.90
2019-05-17T18:55:23.249Z,15.80
2019-05-17T18:57:52.388Z,15.80
2019-05-17T19:00:22.299Z,15.70
2019-05-17T19:02:51.657Z,15.70
2019-05-17T19:05:20.842Z,15.60
2019-05-17T19:07:50.928Z,15.40
2019-05-17T19:10:21.208Z,15.30
2019-05-17T19:12:50.603Z,15.10
2019-05-17T19:15:20.916Z,15.00
2019-05-17T19:17:50.278Z,15.00
2019-05-17T19:20:19.432Z,15.00
2019-05-17T19:22:48.542Z,14.90
2019-05-17T19:25:17.733Z,15.00
2019-05-17T19:27:46.956Z,14.90
2019-05-17T19:30:16.860Z,14.90
2019-05-17T19:32:46.231Z,14.80
2019-05-17T19:35:15.397Z,14.80
2019-05-17T19:37:45.049Z,14.70
2019-05-17T19:40:14.745Z,14.70
2019-05-17T19:42:44.081Z,14.60
2019-05-17T19:45:15.855Z,14.40
2019-05-17T19:47:45.189Z,14.30
2019-05-17T19:50:15.692Z,14.20
2019-05-17T19:52:45.646Z,14.10
2019-05-17T19:55:15.538Z,14.10
2019-05-17T19:57:44.617Z,14.00
2019-05-17T20:00:14.105Z,14.00
2019-05-17T20:02:43.455Z,13.90
2019-05-17T20:05:12.664Z,13.90
2019-05-17T20:07:41.807Z,14.00
2019-05-17T20:10:11.906Z,14.00
2019-05-17T20:12:41.303Z,13.90
2019-05-17T20:15:17.203Z,13.90
2019-05-17T20:17:41.446Z,13.70
2019-05-17T20:20:10.579Z,13.70
2019-05-17T20:22:40.047Z,13.70
2019-05-17T20:25:09.465Z,13.70
2019-05-17T20:27:38.607Z,13.70
2019-05-17T20:30:10.001Z,13.70
2019-05-17T20:32:39.390Z,13.60
2019-05-17T20:35:08.645Z,13.50
2019-05-17T20:37:38.152Z,13.30
2019-05-17T20:40:10.311Z,13.30
2019-05-17T20:42:39.702Z,13.20
2019-05-17T20:45:09.409Z,13.20
2019-05-17T20:47:38.566Z,13.20
2019-05-17T20:50:08.757Z,13.30
2019-05-17T20:52:37.869Z,13.30
2019-05-17T20:55:08.147Z,13.20
2019-05-17T20:57:37.305Z,13.20
2019-05-17T21:00:10.818Z,13.20
2019-05-17T21:02:40.643Z,13.10
2019-05-17T21:05:12.013Z,13.00
2019-05-17T21:07:41.273Z,12.90
2019-05-17T21:10:11.711Z,12.90
2019-05-17T21:12:41.163Z,12.80
2019-05-17T21:15:12.741Z,12.70
2019-05-17T21:17:42.095Z,12.70
2019-05-17T21:20:13.240Z,12.60
2019-05-17T21:22:42.628Z,12.60
2019-05-17T21:25:12.063Z,12.70
2019-05-17T21:27:41.151Z,12.70
2019-05-17T21:30:10.943Z,12.60
2019-05-17T21:32:40.366Z,12.50
2019-05-17T21:38:12.663Z,12.50
2019-05-17T21:40:41.774Z,12.50
2019-05-17T21:43:11.165Z,12.50
2019-05-17T21:45:40.596Z,12.60
2019-05-17T21:48:09.674Z,12.60
2019-05-17T21:50:39.059Z,12.60
2019-05-17T21:53:08.184Z,12.60
2019-05-17T21:55:37.293Z,12.50
2019-05-17T21:58:06.453Z,12.50
2019-05-17T22:01:03.694Z,12.40
2019-05-17T22:03:33.073Z,12.30
2019-05-17T22:06:02.460Z,12.20
2019-05-17T22:08:31.831Z,12.10
2019-05-17T22:11:01.201Z,12.10
2019-05-17T22:13:31.532Z,12.00
2019-05-17T22:16:00.779Z,12.10
2019-05-17T22:18:29.930Z,12.20
2019-05-17T22:20:59.621Z,12.20
2019-05-17T22:23:28.762Z,12.20
2019-05-17T22:25:57.854Z,12.20
2019-05-17T22:28:27.006Z,12.30
2019-05-17T22:30:56.093Z,12.30
2019-05-17T22:33:25.242Z,12.10
2019-05-17T22:35:54.597Z,12.20
2019-05-17T22:38:23.966Z,12.10
2019-05-17T22:40:53.110Z,12.20
2019-05-17T22:43:22.450Z,12.30
2019-05-17T22:45:51.568Z,12.20
2019-05-17T22:48:20.668Z,12.10
2019-05-17T22:50:50.012Z,12.10
2019-05-17T22:53:19.369Z,12.00
2019-05-17T22:55:48.725Z,12.00
2019-05-17T22:58:18.027Z,11.80
2019-05-17T23:00:47.376Z,12.00
2019-05-17T23:03:16.507Z,11.80
2019-05-17T23:05:45.626Z,11.80
2019-05-17T23:08:15.001Z,11.80
2019-05-17T23:10:44.326Z,11.80
2019-05-17T23:13:13.795Z,11.70
2019-05-17T23:16:01.237Z,11.80
2019-05-17T23:18:35.052Z,11.60
2019-05-17T23:21:04.355Z,11.60
2019-05-17T23:23:33.836Z,11.50
2019-05-17T23:26:03.211Z,11.40
2019-05-17T23:28:32.376Z,11.40
2019-05-17T23:31:01.849Z,11.20
2019-05-17T23:33:31.185Z,11.30
2019-05-17T23:36:00.253Z,11.40
2019-05-17T23:38:29.622Z,11.30
2019-05-17T23:40:58.956Z,11.30
2019-05-17T23:43:28.319Z,11.20
2019-05-17T23:45:57.693Z,11.10
2019-05-17T23:48:26.866Z,11.20
2019-05-17T23:50:55.969Z,11.20
2019-05-17T23:53:25.056Z,11.20
2019-05-17T23:55:54.459Z,11.10
2019-05-17T23:58:23.822Z,11.00
